sensor_id;sensor_type;location;lat;lon;timestamp;pressure;altitude;pressure_sealevel;temperature;humidity
19447;BME280;9862;49.462;11.054;2023-05-29T00:01:37;98137.72;;;19.53;79.19
19447;BME280;9862;49.462;11.054;2023-05-29T00:04:06;98127.41;;;19.44;80.10
19447;BME280;9862;49.462;11.054;2023-05-29T00:06:32;98133.09;;;19.43;80.05
19447;BME280;9862;49.462;11.054;2023-05-29T00:08:59;98134.13;;;19.37;80.01
19447;BME280;9862;49.462;11.054;2023-05-29T00:11:26;98128.44;;;19.33;80.77
19447;BME280;9862;49.462;11.054;2023-05-29T00:13:54;98140.84;;;19.29;80.92
19447;BME280;9862;49.462;11.054;2023-05-29T00:16:22;98135.19;;;19.31;80.66
19447;BME280;9862;49.462;11.054;2023-05-29T00:18:48;98138.97;;;19.35;80.14
19447;BME280;9862;49.462;11.054;2023-05-29T00:21:17;98135.66;;;19.17;81.28
19447;BME280;9862;49.462;11.054;2023-05-29T00:23:44;98137.00;;;19.15;83.21
19447;BME280;9862;49.462;11.054;2023-05-29T00:26:10;98137.00;;;19.15;83.21
19447;BME280;9862;49.462;11.054;2023-05-29T00:28:38;98136.44;;;19.13;83.01
19447;BME280;9862;49.462;11.054;2023-05-29T00:31:06;98139.09;;;19.08;83.53
19447;BME280;9862;49.462;11.054;2023-05-29T00:33:33;98136.13;;;19.04;84.96
19447;BME280;9862;49.462;11.054;2023-05-29T00:35:59;98139.38;;;19.06;85.66
19447;BME280;9862;49.462;11.054;2023-05-29T00:38:26;98133.19;;;19.11;85.04
19447;BME280;9862;49.462;11.054;2023-05-29T00:40:52;98126.69;;;19.07;84.85
19447;BME280;9862;49.462;11.054;2023-05-29T00:43:19;98122.16;;;19.12;84.29
19447;BME280;9862;49.462;11.054;2023-05-29T00:45:46;98128.41;;;19.23;83.52
19447;BME280;9862;49.462;11.054;2023-05-29T00:48:14;98124.03;;;19.17;83.73
19447;BME280;9862;49.462;11.054;2023-05-29T00:50:43;98128.91;;;19.20;83.48
19447;BME280;9862;49.462;11.054;2023-05-29T00:53:10;98137.03;;;19.25;80.67
19447;BME280;9862;49.462;11.054;2023-05-29T00:55:37;98137.63;;;19.32;79.42
19447;BME280;9862;49.462;11.054;2023-05-29T00:58:04;98140.81;;;19.24;80.20
19447;BME280;9862;49.462;11.054;2023-05-29T01:00:31;98146.75;;;19.21;81.13
19447;BME280;9862;49.462;11.054;2023-05-29T01:03:00;98147.72;;;19.05;82.45
19447;BME280;9862;49.462;11.054;2023-05-29T01:05:32;98145.97;;;18.83;84.13
19447;BME280;9862;49.462;11.054;2023-05-29T01:07:59;98148.41;;;18.85;83.62
19447;BME280;9862;49.462;11.054;2023-05-29T01:10:26;98138.03;;;18.72;84.06
19447;BME280;9862;49.462;11.054;2023-05-29T01:12:57;98143.66;;;18.65;86.02
19447;BME280;9862;49.462;11.054;2023-05-29T01:15:33;98136.38;;;18.66;86.98
19447;BME280;9862;49.462;11.054;2023-05-29T01:18:11;98135.09;;;18.73;86.92
19447;BME280;9862;49.462;11.054;2023-05-29T01:20:42;98134.06;;;18.79;86.91
19447;BME280;9862;49.462;11.054;2023-05-29T01:23:23;98130.28;;;18.80;86.34
19447;BME280;9862;49.462;11.054;2023-05-29T01:26:03;98135.69;;;18.80;86.17
19447;BME280;9862;49.462;11.054;2023-05-29T01:28:39;98128.41;;;18.81;84.37
19447;BME280;9862;49.462;11.054;2023-05-29T01:31:07;98133.56;;;18.82;83.28
19447;BME280;9862;49.462;11.054;2023-05-29T01:33:38;98130.06;;;18.82;83.86
19447;BME280;9862;49.462;11.054;2023-05-29T01:36:06;98134.66;;;18.86;84.06
19447;BME280;9862;49.462;11.054;2023-05-29T01:38:33;98128.16;;;18.82;83.58
19447;BME280;9862;49.462;11.054;2023-05-29T01:41:00;98128.38;;;18.76;85.18
19447;BME280;9862;49.462;11.054;2023-05-29T01:43:27;98125.69;;;18.81;84.53
19447;BME280;9862;49.462;11.054;2023-05-29T01:45:56;98134.06;;;18.79;84.10
19447;BME280;9862;49.462;11.054;2023-05-29T01:48:24;98124.31;;;18.73;85.49
19447;BME280;9862;49.462;11.054;2023-05-29T01:50:51;98114.25;;;18.64;85.42
19447;BME280;9862;49.462;11.054;2023-05-29T01:53:18;98120.38;;;18.54;86.04
19447;BME280;9862;49.462;11.054;2023-05-29T01:55:45;98130.03;;;18.50;87.55
19447;BME280;9862;49.462;11.054;2023-05-29T01:58:13;98124.72;;;18.60;84.88
19447;BME280;9862;49.462;11.054;2023-05-29T02:00:41;98131.72;;;18.61;87.49
19447;BME280;9862;49.462;11.054;2023-05-29T02:03:09;98124.63;;;18.50;88.68
19447;BME280;9862;49.462;11.054;2023-05-29T02:05:37;98121.22;;;18.27;90.83
19447;BME280;9862;49.462;11.054;2023-05-29T02:08:03;98127.44;;;18.01;95.37
19447;BME280;9862;49.462;11.054;2023-05-29T02:10:30;98122.91;;;17.80;99.17
19447;BME280;9862;49.462;11.054;2023-05-29T02:13:00;98118.06;;;17.60;100.00
19447;BME280;9862;49.462;11.054;2023-05-29T02:15:28;98126.31;;;17.53;100.00
19447;BME280;9862;49.462;11.054;2023-05-29T02:17:59;98117.50;;;17.58;100.00
19447;BME280;9862;49.462;11.054;2023-05-29T02:20:30;98113.44;;;17.55;100.00
19447;BME280;9862;49.462;11.054;2023-05-29T02:22:58;98112.88;;;17.53;100.00
19447;BME280;9862;49.462;11.054;2023-05-29T02:25:26;98118.38;;;17.63;100.00
19447;BME280;9862;49.462;11.054;2023-05-29T02:27:53;98114.06;;;17.62;100.00
19447;BME280;9862;49.462;11.054;2023-05-29T02:30:19;98113.13;;;17.52;100.00
19447;BME280;9862;49.462;11.054;2023-05-29T02:32:46;98109.25;;;17.42;100.00
19447;BME280;9862;49.462;11.054;2023-05-29T02:35:13;98107.94;;;17.45;100.00
19447;BME280;9862;49.462;11.054;2023-05-29T02:37:42;98107.75;;;17.52;100.00
19447;BME280;9862;49.462;11.054;2023-05-29T02:40:10;98112.31;;;17.51;100.00
19447;BME280;9862;49.462;11.054;2023-05-29T02:42:37;98114.53;;;17.15;100.00
19447;BME280;9862;49.462;11.054;2023-05-29T02:45:05;98115.41;;;16.99;100.00
19447;BME280;9862;49.462;11.054;2023-05-29T02:47:32;98111.84;;;16.94;100.00
19447;BME280;9862;49.462;11.054;2023-05-29T02:50:00;98112.75;;;16.82;100.00
19447;BME280;9862;49.462;11.054;2023-05-29T02:52:26;98109.56;;;16.85;100.00
19447;BME280;9862;49.462;11.054;2023-05-29T02:54:55;98104.66;;;16.99;100.00
19447;BME280;9862;49.462;11.054;2023-05-29T02:57:21;98110.59;;;17.01;100.00
19447;BME280;9862;49.462;11.054;2023-05-29T02:59:48;98109.16;;;17.15;100.00
19447;BME280;9862;49.462;11.054;2023-05-29T03:02:15;98113.44;;;17.11;100.00
19447;BME280;9862;49.462;11.054;2023-05-29T03:04:41;98109.38;;;17.09;100.00
19447;BME280;9862;49.462;11.054;2023-05-29T03:07:08;98109.91;;;16.89;100.00
19447;BME280;9862;49.462;11.054;2023-05-29T03:09:35;98108.50;;;16.86;100.00
19447;BME280;9862;49.462;11.054;2023-05-29T03:12:03;98117.22;;;16.77;100.00
19447;BME280;9862;49.462;11.054;2023-05-29T03:14:30;98122.59;;;16.77;100.00
19447;BME280;9862;49.462;11.054;2023-05-29T03:17:01;98115.44;;;16.82;100.00
19447;BME280;9862;49.462;11.054;2023-05-29T03:19:28;98113.25;;;16.79;100.00
19447;BME280;9862;49.462;11.054;2023-05-29T03:21:54;98116.00;;;16.84;100.00
19447;BME280;9862;49.462;11.054;2023-05-29T03:24:21;98111.91;;;16.99;100.00
19447;BME280;9862;49.462;11.054;2023-05-29T03:26:48;98105.78;;;17.03;100.00
19447;BME280;9862;49.462;11.054;2023-05-29T03:29:17;98106.59;;;17.04;100.00
19447;BME280;9862;49.462;11.054;2023-05-29T03:31:44;98113.16;;;16.91;100.00
19447;BME280;9862;49.462;11.054;2023-05-29T03:34:10;98114.59;;;16.99;100.00
19447;BME280;9862;49.462;11.054;2023-05-29T03:36:38;98120.06;;;16.87;100.00
19447;BME280;9862;49.462;11.054;2023-05-29T03:39:05;98113.47;;;16.78;100.00
19447;BME280;9862;49.462;11.054;2023-05-29T03:41:32;98114.63;;;16.82;100.00
19447;BME280;9862;49.462;11.054;2023-05-29T03:43:58;98123.09;;;16.74;100.00
19447;BME280;9862;49.462;11.054;2023-05-29T03:46:27;98134.34;;;16.71;100.00
19447;BME280;9862;49.462;11.054;2023-05-29T03:48:53;98128.47;;;16.74;100.00
19447;BME280;9862;49.462;11.054;2023-05-29T03:51:20;98132.22;;;16.73;100.00
19447;BME280;9862;49.462;11.054;2023-05-29T03:53:46;98136.44;;;16.69;100.00
19447;BME280;9862;49.462;11.054;2023-05-29T03:56:13;98132.72;;;16.70;100.00
19447;BME280;9862;49.462;11.054;2023-05-29T03:58:40;98132.53;;;16.76;100.00
19447;BME280;9862;49.462;11.054;2023-05-29T04:01:06;98143.13;;;16.83;100.00
19447;BME280;9862;49.462;11.054;2023-05-29T04:03:35;98145.25;;;16.81;100.00
19447;BME280;9862;49.462;11.054;2023-05-29T04:06:03;98143.38;;;16.81;100.00
19447;BME280;9862;49.462;11.054;2023-05-29T04:08:30;98146.06;;;16.81;100.00
19447;BME280;9862;49.462;11.054;2023-05-29T04:10:56;98148.22;;;16.68;100.00
19447;BME280;9862;49.462;11.054;2023-05-29T04:13:23;98146.84;;;16.65;100.00
19447;BME280;9862;49.462;11.054;2023-05-29T04:15:50;98156.47;;;16.61;100.00
19447;BME280;9862;49.462;11.054;2023-05-29T04:18:18;98166.09;;;16.74;100.00
19447;BME280;9862;49.462;11.054;2023-05-29T04:20:46;98161.03;;;16.77;100.00
19447;BME280;9862;49.462;11.054;2023-05-29T04:23:13;98164.47;;;16.73;100.00
19447;BME280;9862;49.462;11.054;2023-05-29T04:25:40;98163.00;;;16.82;100.00
19447;BME280;9862;49.462;11.054;2023-05-29T04:28:07;98164.06;;;16.81;100.00
19447;BME280;9862;49.462;11.054;2023-05-29T04:30:36;98167.06;;;16.84;100.00
19447;BME280;9862;49.462;11.054;2023-05-29T04:33:04;98172.28;;;16.74;100.00
19447;BME280;9862;49.462;11.054;2023-05-29T04:35:31;98172.38;;;16.79;100.00
19447;BME280;9862;49.462;11.054;2023-05-29T04:37:59;98181.09;;;16.70;100.00
19447;BME280;9862;49.462;11.054;2023-05-29T04:40:25;98179.25;;;16.58;100.00
19447;BME280;9862;49.462;11.054;2023-05-29T04:42:52;98185.63;;;16.52;100.00
19447;BME280;9862;49.462;11.054;2023-05-29T04:45:20;98191.63;;;16.59;100.00
19447;BME280;9862;49.462;11.054;2023-05-29T04:47:47;98202.97;;;16.62;100.00
19447;BME280;9862;49.462;11.054;2023-05-29T04:50:16;98206.06;;;16.53;100.00
19447;BME280;9862;49.462;11.054;2023-05-29T04:52:43;98208.56;;;16.43;100.00
19447;BME280;9862;49.462;11.054;2023-05-29T04:55:11;98208.16;;;16.51;100.00
19447;BME280;9862;49.462;11.054;2023-05-29T04:57:37;98206.63;;;16.55;100.00
19447;BME280;9862;49.462;11.054;2023-05-29T05:00:06;98218.50;;;16.59;100.00
19447;BME280;9862;49.462;11.054;2023-05-29T05:02:33;98208.59;;;16.60;100.00
19447;BME280;9862;49.462;11.054;2023-05-29T05:05:00;98215.91;;;16.65;100.00
19447;BME280;9862;49.462;11.054;2023-05-29T05:07:27;98209.41;;;16.60;100.00
19447;BME280;9862;49.462;11.054;2023-05-29T05:09:53;98217.84;;;16.52;100.00
19447;BME280;9862;49.462;11.054;2023-05-29T05:12:21;98220.16;;;16.60;100.00
19447;BME280;9862;49.462;11.054;2023-05-29T05:14:48;98225.94;;;16.69;100.00
19447;BME280;9862;49.462;11.054;2023-05-29T05:17:15;98212.06;;;16.89;100.00
19447;BME280;9862;49.462;11.054;2023-05-29T05:19:42;98224.50;;;17.12;100.00
19447;BME280;9862;49.462;11.054;2023-05-29T05:22:08;98226.50;;;17.38;100.00
19447;BME280;9862;49.462;11.054;2023-05-29T05:24:35;98226.41;;;17.50;100.00
19447;BME280;9862;49.462;11.054;2023-05-29T05:27:03;98226.91;;;17.47;100.00
19447;BME280;9862;49.462;11.054;2023-05-29T05:29:31;98224.91;;;17.59;100.00
19447;BME280;9862;49.462;11.054;2023-05-29T05:31:58;98231.34;;;17.58;100.00
19447;BME280;9862;49.462;11.054;2023-05-29T05:34:24;98233.78;;;17.60;100.00
19447;BME280;9862;49.462;11.054;2023-05-29T05:36:51;98235.72;;;17.64;100.00
19447;BME280;9862;49.462;11.054;2023-05-29T05:39:18;98240.03;;;17.65;100.00
19447;BME280;9862;49.462;11.054;2023-05-29T05:41:44;98236.22;;;17.61;100.00
19447;BME280;9862;49.462;11.054;2023-05-29T05:44:11;98244.88;;;17.63;100.00
19447;BME280;9862;49.462;11.054;2023-05-29T05:46:39;98246.63;;;17.36;100.00
19447;BME280;9862;49.462;11.054;2023-05-29T05:49:05;98249.41;;;17.41;100.00
19447;BME280;9862;49.462;11.054;2023-05-29T05:51:32;98251.75;;;17.54;100.00
19447;BME280;9862;49.462;11.054;2023-05-29T05:53:59;98245.13;;;17.62;100.00
19447;BME280;9862;49.462;11.054;2023-05-29T05:56:25;98249.31;;;17.69;100.00
19447;BME280;9862;49.462;11.054;2023-05-29T05:58:52;98251.41;;;17.67;100.00
19447;BME280;9862;49.462;11.054;2023-05-29T06:01:18;98256.69;;;17.79;100.00
19447;BME280;9862;49.462;11.054;2023-05-29T06:03:47;98256.44;;;17.81;100.00
19447;BME280;9862;49.462;11.054;2023-05-29T06:06:14;98256.44;;;17.81;100.00
19447;BME280;9862;49.462;11.054;2023-05-29T06:08:42;98254.94;;;17.90;100.00
19447;BME280;9862;49.462;11.054;2023-05-29T06:11:09;98258.19;;;17.92;100.00
19447;BME280;9862;49.462;11.054;2023-05-29T06:13:36;98257.69;;;17.95;100.00
19447;BME280;9862;49.462;11.054;2023-05-29T06:16:03;98258.84;;;17.99;100.00
19447;BME280;9862;49.462;11.054;2023-05-29T06:18:30;98268.53;;;18.00;100.00
19447;BME280;9862;49.462;11.054;2023-05-29T06:20:58;98256.81;;;18.11;100.00
19447;BME280;9862;49.462;11.054;2023-05-29T06:23:25;98257.97;;;18.15;100.00
19447;BME280;9862;49.462;11.054;2023-05-29T06:25:52;98255.63;;;18.24;100.00
19447;BME280;9862;49.462;11.054;2023-05-29T06:28:18;98258.56;;;18.44;100.00
19447;BME280;9862;49.462;11.054;2023-05-29T06:30:45;98258.69;;;18.59;100.00
19447;BME280;9862;49.462;11.054;2023-05-29T06:33:12;98263.25;;;18.59;100.00
19447;BME280;9862;49.462;11.054;2023-05-29T06:35:38;98262.69;;;18.79;97.49
19447;BME280;9862;49.462;11.054;2023-05-29T06:38:06;98262.47;;;18.85;96.34
19447;BME280;9862;49.462;11.054;2023-05-29T06:40:33;98260.16;;;18.99;96.35
19447;BME280;9862;49.462;11.054;2023-05-29T06:43:00;98257.31;;;19.16;93.96
19447;BME280;9862;49.462;11.054;2023-05-29T06:45:26;98261.13;;;19.20;95.62
19447;BME280;9862;49.462;11.054;2023-05-29T06:47:53;98263.94;;;19.30;94.72
19447;BME280;9862;49.462;11.054;2023-05-29T06:50:20;98262.34;;;19.39;94.31
19447;BME280;9862;49.462;11.054;2023-05-29T06:52:47;98274.28;;;19.49;93.46
19447;BME280;9862;49.462;11.054;2023-05-29T06:55:15;98269.03;;;19.64;87.64
19447;BME280;9862;49.462;11.054;2023-05-29T06:57:41;98265.28;;;19.70;87.19
19447;BME280;9862;49.462;11.054;2023-05-29T07:00:09;98263.78;;;19.94;83.57
19447;BME280;9862;49.462;11.054;2023-05-29T07:02:36;98257.28;;;19.90;82.97
19447;BME280;9862;49.462;11.054;2023-05-29T07:05:03;98259.44;;;19.93;84.46
19447;BME280;9862;49.462;11.054;2023-05-29T07:07:31;98264.34;;;20.01;84.69
19447;BME280;9862;49.462;11.054;2023-05-29T07:09:58;98259.25;;;20.10;83.62
19447;BME280;9862;49.462;11.054;2023-05-29T07:12:26;98259.56;;;20.19;80.62
19447;BME280;9862;49.462;11.054;2023-05-29T07:14:53;98255.28;;;20.28;78.90
19447;BME280;9862;49.462;11.054;2023-05-29T07:17:19;98260.16;;;20.41;73.75
19447;BME280;9862;49.462;11.054;2023-05-29T07:19:46;98258.00;;;20.38;73.46
19447;BME280;9862;49.462;11.054;2023-05-29T07:22:14;98261.88;;;20.68;69.26
19447;BME280;9862;49.462;11.054;2023-05-29T07:24:41;98263.50;;;20.69;68.17
19447;BME280;9862;49.462;11.054;2023-05-29T07:27:07;98263.75;;;20.72;66.77
19447;BME280;9862;49.462;11.054;2023-05-29T07:29:35;98262.94;;;20.62;68.99
19447;BME280;9862;49.462;11.054;2023-05-29T07:32:02;98265.09;;;20.60;72.45
19447;BME280;9862;49.462;11.054;2023-05-29T07:34:29;98266.19;;;20.64;73.59
19447;BME280;9862;49.462;11.054;2023-05-29T07:36:57;98271.63;;;20.79;72.64
19447;BME280;9862;49.462;11.054;2023-05-29T07:39:25;98262.97;;;20.82;72.51
19447;BME280;9862;49.462;11.054;2023-05-29T07:41:51;98259.19;;;20.93;69.93
19447;BME280;9862;49.462;11.054;2023-05-29T07:44:18;98255.41;;;20.94;68.73
19447;BME280;9862;49.462;11.054;2023-05-29T07:46:46;98257.56;;;21.02;69.63
19447;BME280;9862;49.462;11.054;2023-05-29T07:49:13;98259.22;;;21.13;68.84
19447;BME280;9862;49.462;11.054;2023-05-29T07:51:40;98260.81;;;21.25;61.90
19447;BME280;9862;49.462;11.054;2023-05-29T07:54:06;98256.50;;;21.39;60.11
19447;BME280;9862;49.462;11.054;2023-05-29T07:56:33;98255.69;;;21.38;62.84
19447;BME280;9862;49.462;11.054;2023-05-29T07:59:00;98258.94;;;21.46;61.97
19447;BME280;9862;49.462;11.054;2023-05-29T08:01:26;98260.25;;;21.58;55.91
19447;BME280;9862;49.462;11.054;2023-05-29T08:03:55;98257.81;;;21.57;56.31
19447;BME280;9862;49.462;11.054;2023-05-29T08:06:21;98262.41;;;21.66;55.11
19447;BME280;9862;49.462;11.054;2023-05-29T08:08:48;98256.19;;;21.56;53.73
19447;BME280;9862;49.462;11.054;2023-05-29T08:11:14;98255.94;;;21.47;54.49
19447;BME280;9862;49.462;11.054;2023-05-29T08:13:41;98241.31;;;21.53;56.62
19447;BME280;9862;49.462;11.054;2023-05-29T08:16:08;98247.22;;;21.60;56.04
19447;BME280;9862;49.462;11.054;2023-05-29T08:18:34;98247.22;;;21.70;54.18
19447;BME280;9862;49.462;11.054;2023-05-29T08:21:03;98251.56;;;21.71;54.10
19447;BME280;9862;49.462;11.054;2023-05-29T08:23:30;98246.13;;;21.77;54.47
19447;BME280;9862;49.462;11.054;2023-05-29T08:25:57;98246.09;;;21.87;49.83
19447;BME280;9862;49.462;11.054;2023-05-29T08:28:25;98237.13;;;21.91;49.13
19447;BME280;9862;49.462;11.054;2023-05-29T08:30:52;98236.81;;;21.98;49.77
19447;BME280;9862;49.462;11.054;2023-05-29T08:33:18;98245.22;;;22.07;49.47
19447;BME280;9862;49.462;11.054;2023-05-29T08:35:45;98244.41;;;22.11;49.21
19447;BME280;9862;49.462;11.054;2023-05-29T08:38:13;98244.06;;;22.23;47.15
19447;BME280;9862;49.462;11.054;2023-05-29T08:40:40;98244.31;;;22.26;47.82
19447;BME280;9862;49.462;11.054;2023-05-29T08:43:13;98242.63;;;22.41;47.88
19447;BME280;9862;49.462;11.054;2023-05-29T08:45:43;98233.63;;;22.45;47.14
19447;BME280;9862;49.462;11.054;2023-05-29T08:48:11;98238.28;;;22.40;46.15
19447;BME280;9862;49.462;11.054;2023-05-29T08:50:43;98235.63;;;22.30;47.61
19447;BME280;9862;49.462;11.054;2023-05-29T08:53:11;98234.53;;;22.31;47.31
19447;BME280;9862;49.462;11.054;2023-05-29T08:55:39;98236.94;;;22.37;46.73
19447;BME280;9862;49.462;11.054;2023-05-29T08:58:06;98230.03;;;22.55;44.39
19447;BME280;9862;49.462;11.054;2023-05-29T09:00:33;98226.50;;;22.60;44.42
19447;BME280;9862;49.462;11.054;2023-05-29T09:03:00;98228.94;;;22.61;44.39
19447;BME280;9862;49.462;11.054;2023-05-29T09:05:28;98221.53;;;22.67;42.67
19447;BME280;9862;49.462;11.054;2023-05-29T09:07:55;98221.28;;;22.68;42.70
19447;BME280;9862;49.462;11.054;2023-05-29T09:10:22;98222.63;;;22.71;43.56
19447;BME280;9862;49.462;11.054;2023-05-29T09:12:52;98220.13;;;22.79;42.38
19447;BME280;9862;49.462;11.054;2023-05-29T09:15:19;98215.72;;;22.83;41.87
19447;BME280;9862;49.462;11.054;2023-05-29T09:17:50;98216.13;;;22.67;40.77
19447;BME280;9862;49.462;11.054;2023-05-29T09:20:18;98218.31;;;22.65;41.16
19447;BME280;9862;49.462;11.054;2023-05-29T09:22:53;98215.56;;;22.70;40.29
19447;BME280;9862;49.462;11.054;2023-05-29T09:25:20;98229.59;;;22.82;39.90
19447;BME280;9862;49.462;11.054;2023-05-29T09:27:52;98224.00;;;22.68;40.09
19447;BME280;9862;49.462;11.054;2023-05-29T09:30:34;98222.28;;;22.77;40.77
19447;BME280;9862;49.462;11.054;2023-05-29T09:33:01;98221.25;;;22.73;40.69
19447;BME280;9862;49.462;11.054;2023-05-29T09:35:35;98217.63;;;22.88;38.30
19447;BME280;9862;49.462;11.054;2023-05-29T09:38:02;98223.22;;;23.02;37.97
19447;BME280;9862;49.462;11.054;2023-05-29T09:40:30;98225.97;;;22.97;40.17
19447;BME280;9862;49.462;11.054;2023-05-29T09:43:03;98222.63;;;23.05;37.95
19447;BME280;9862;49.462;11.054;2023-05-29T09:45:36;98225.94;;;23.02;37.53
19447;BME280;9862;49.462;11.054;2023-05-29T09:48:05;98224.34;;;22.96;39.22
19447;BME280;9862;49.462;11.054;2023-05-29T09:50:31;98218.19;;;23.19;39.13
19447;BME280;9862;49.462;11.054;2023-05-29T09:52:59;98228.53;;;23.17;38.14
19447;BME280;9862;49.462;11.054;2023-05-29T09:55:27;98231.25;;;23.17;38.49
19447;BME280;9862;49.462;11.054;2023-05-29T09:57:57;98222.00;;;23.18;36.59
19447;BME280;9862;49.462;11.054;2023-05-29T10:00:26;98230.16;;;23.13;37.61
19447;BME280;9862;49.462;11.054;2023-05-29T10:02:53;98219.78;;;23.20;36.15
19447;BME280;9862;49.462;11.054;2023-05-29T10:05:21;98220.38;;;23.17;36.19
19447;BME280;9862;49.462;11.054;2023-05-29T10:07:49;98220.38;;;23.17;36.53
19447;BME280;9862;49.462;11.054;2023-05-29T10:10:18;98221.91;;;23.28;36.35
19447;BME280;9862;49.462;11.054;2023-05-29T10:12:48;98225.72;;;23.27;37.58
19447;BME280;9862;49.462;11.054;2023-05-29T10:15:16;98222.59;;;23.39;36.80
19447;BME280;9862;49.462;11.054;2023-05-29T10:17:50;98221.19;;;23.47;36.78
19447;BME280;9862;49.462;11.054;2023-05-29T10:20:18;98215.88;;;23.31;35.88
19447;BME280;9862;49.462;11.054;2023-05-29T10:22:49;98213.78;;;23.23;37.04
19447;BME280;9862;49.462;11.054;2023-05-29T10:25:18;98207.88;;;23.16;36.42
19447;BME280;9862;49.462;11.054;2023-05-29T10:27:45;98206.97;;;22.97;37.30
19447;BME280;9862;49.462;11.054;2023-05-29T10:30:20;98201.50;;;23.02;37.35
19447;BME280;9862;49.462;11.054;2023-05-29T10:33:18;98206.31;;;23.10;37.37
19447;BME280;9862;49.462;11.054;2023-05-29T10:35:47;98202.00;;;23.33;37.73
19447;BME280;9862;49.462;11.054;2023-05-29T10:38:15;98204.28;;;23.50;37.32
19447;BME280;9862;49.462;11.054;2023-05-29T10:40:44;98204.44;;;23.63;37.20
19447;BME280;9862;49.462;11.054;2023-05-29T10:43:29;98193.84;;;23.86;35.94
19447;BME280;9862;49.462;11.054;2023-05-29T10:45:56;98206.44;;;24.01;35.81
19447;BME280;9862;49.462;11.054;2023-05-29T10:48:41;98198.28;;;24.01;34.75
19447;BME280;9862;49.462;11.054;2023-05-29T10:51:24;98195.13;;;23.93;35.41
19447;BME280;9862;49.462;11.054;2023-05-29T10:53:51;98193.13;;;23.99;35.58
19447;BME280;9862;49.462;11.054;2023-05-29T10:56:21;98186.44;;;23.91;35.26
19447;BME280;9862;49.462;11.054;2023-05-29T10:58:54;98190.88;;;23.82;35.29
19447;BME280;9862;49.462;11.054;2023-05-29T11:01:22;98192.81;;;23.82;36.06
19447;BME280;9862;49.462;11.054;2023-05-29T11:03:51;98192.16;;;23.90;36.10
19447;BME280;9862;49.462;11.054;2023-05-29T11:06:19;98181.31;;;24.09;34.87
19447;BME280;9862;49.462;11.054;2023-05-29T11:08:53;98186.69;;;24.14;35.25
19447;BME280;9862;49.462;11.054;2023-05-29T11:11:29;98188.69;;;24.27;34.43
19447;BME280;9862;49.462;11.054;2023-05-29T11:14:00;98188.66;;;24.32;34.80
19447;BME280;9862;49.462;11.054;2023-05-29T11:16:38;98184.22;;;24.36;34.23
19447;BME280;9862;49.462;11.054;2023-05-29T11:19:07;98175.56;;;24.34;34.75
19447;BME280;9862;49.462;11.054;2023-05-29T11:21:46;98181.03;;;24.29;34.28
19447;BME280;9862;49.462;11.054;2023-05-29T11:24:21;98180.50;;;24.32;35.46
19447;BME280;9862;49.462;11.054;2023-05-29T11:26:50;98176.13;;;24.31;35.60
19447;BME280;9862;49.462;11.054;2023-05-29T11:29:21;98184.28;;;24.31;35.34
19447;BME280;9862;49.462;11.054;2023-05-29T11:31:49;98172.44;;;24.41;35.65
19447;BME280;9862;49.462;11.054;2023-05-29T11:34:25;98177.03;;;24.45;35.65
19447;BME280;9862;49.462;11.054;2023-05-29T11:36:56;98170.41;;;24.51;35.78
19447;BME280;9862;49.462;11.054;2023-05-29T11:39:23;98168.69;;;24.55;36.24
19447;BME280;9862;49.462;11.054;2023-05-29T11:41:50;98165.06;;;24.60;36.61
19447;BME280;9862;49.462;11.054;2023-05-29T11:44:18;98157.34;;;24.67;35.69
19447;BME280;9862;49.462;11.054;2023-05-29T11:46:45;98159.22;;;24.86;35.95
19447;BME280;9862;49.462;11.054;2023-05-29T11:49:11;98167.59;;;24.89;35.56
19447;BME280;9862;49.462;11.054;2023-05-29T11:51:41;98170.22;;;24.80;35.52
19447;BME280;9862;49.462;11.054;2023-05-29T11:54:08;98162.25;;;24.84;36.10
19447;BME280;9862;49.462;11.054;2023-05-29T11:56:35;98168.19;;;24.86;35.59
19447;BME280;9862;49.462;11.054;2023-05-29T11:59:10;98162.72;;;25.05;34.90
19447;BME280;9862;49.462;11.054;2023-05-29T12:01:37;98164.56;;;25.09;33.55
19447;BME280;9862;49.462;11.054;2023-05-29T12:04:13;98170.97;;;25.00;34.67
19447;BME280;9862;49.462;11.054;2023-05-29T12:06:41;98154.50;;;24.91;34.71
19447;BME280;9862;49.462;11.054;2023-05-29T12:09:22;98168.47;;;25.03;34.61
19447;BME280;9862;49.462;11.054;2023-05-29T12:11:50;98159.63;;;25.11;33.00
19447;BME280;9862;49.462;11.054;2023-05-29T12:14:16;98163.03;;;25.03;34.05
19447;BME280;9862;49.462;11.054;2023-05-29T12:16:43;98164.66;;;25.04;33.51
19447;BME280;9862;49.462;11.054;2023-05-29T12:19:10;98159.19;;;25.04;33.59
19447;BME280;9862;49.462;11.054;2023-05-29T12:21:42;98164.66;;;25.04;33.83
19447;BME280;9862;49.462;11.054;2023-05-29T12:24:10;98160.84;;;25.19;32.65
19447;BME280;9862;49.462;11.054;2023-05-29T12:26:37;98158.13;;;25.33;31.92
19447;BME280;9862;49.462;11.054;2023-05-29T12:29:04;98161.47;;;25.30;31.87
19447;BME280;9862;49.462;11.054;2023-05-29T12:31:32;98155.50;;;25.28;32.45
19447;BME280;9862;49.462;11.054;2023-05-29T12:34:00;98155.28;;;25.24;31.91
19447;BME280;9862;49.462;11.054;2023-05-29T12:36:28;98156.09;;;25.11;32.39
19447;BME280;9862;49.462;11.054;2023-05-29T12:38:56;98160.63;;;25.02;33.32
19447;BME280;9862;49.462;11.054;2023-05-29T12:41:27;98143.84;;;25.08;33.31
19447;BME280;9862;49.462;11.054;2023-05-29T12:43:54;98153.06;;;25.26;33.57
19447;BME280;9862;49.462;11.054;2023-05-29T12:46:22;98147.94;;;25.25;33.50
19447;BME280;9862;49.462;11.054;2023-05-29T12:48:48;98143.81;;;25.41;33.30
19447;BME280;9862;49.462;11.054;2023-05-29T12:51:17;98146.13;;;25.61;32.76
19447;BME280;9862;49.462;11.054;2023-05-29T12:53:48;98145.31;;;25.47;32.67
19447;BME280;9862;49.462;11.054;2023-05-29T12:56:16;98135.81;;;25.45;33.34
19447;BME280;9862;49.462;11.054;2023-05-29T12:58:43;98137.94;;;25.61;31.82
19447;BME280;9862;49.462;11.054;2023-05-29T13:01:12;98142.28;;;25.62;32.01
19447;BME280;9862;49.462;11.054;2023-05-29T13:03:40;98140.06;;;25.64;32.15